sensor_id;sensor_type;location;lat;lon;timestamp;pressure;altitude;pressure_sealevel;temperature
20103;BMP180;10210;52.284;9.892;2024-03-17T00:02:22;101291.00;;;11.00
20103;BMP180;10210;52.284;9.892;2024-03-17T00:04:48;101293.00;;;11.00
20103;BMP180;10210;52.284;9.892;2024-03-17T00:07:14;101293.00;;;10.90
20103;BMP180;10210;52.284;9.892;2024-03-17T00:09:41;101293.00;;;10.90
20103;BMP180;10210;52.284;9.892;2024-03-17T00:12:08;101300.00;;;10.90
20103;BMP180;10210;52.284;9.892;2024-03-17T00:14:35;101300.00;;;10.90
20103;BMP180;10210;52.284;9.892;2024-03-17T00:17:04;101298.00;;;10.90
20103;BMP180;10210;52.284;9.892;2024-03-17T00:19:30;101300.00;;;10.90
20103;BMP180;10210;52.284;9.892;2024-03-17T00:21:55;101297.00;;;10.80
20103;BMP180;10210;52.284;9.892;2024-03-17T00:24:21;101303.00;;;10.80
20103;BMP180;10210;52.284;9.892;2024-03-17T00:26:48;101303.00;;;10.80
20103;BMP180;10210;52.284;9.892;2024-03-17T00:29:14;101289.00;;;10.80
20103;BMP180;10210;52.284;9.892;2024-03-17T00:31:41;101292.00;;;10.80
20103;BMP180;10210;52.284;9.892;2024-03-17T00:34:08;101297.00;;;10.80
20103;BMP180;10210;52.284;9.892;2024-03-17T00:36:34;101306.00;;;10.80
20103;BMP180;10210;52.284;9.892;2024-03-17T00:39:00;101302.00;;;10.80
20103;BMP180;10210;52.284;9.892;2024-03-17T00:41:26;101312.00;;;10.70
20103;BMP180;10210;52.284;9.892;2024-03-17T00:43:52;101301.00;;;10.70
20103;BMP180;10210;52.284;9.892;2024-03-17T00:46:21;101306.00;;;10.70
20103;BMP180;10210;52.284;9.892;2024-03-17T00:48:51;101309.00;;;10.70
20103;BMP180;10210;52.284;9.892;2024-03-17T00:51:16;101298.00;;;10.70
20103;BMP180;10210;52.284;9.892;2024-03-17T00:53:42;101297.00;;;10.70
20103;BMP180;10210;52.284;9.892;2024-03-17T00:56:09;101301.00;;;10.70
20103;BMP180;10210;52.284;9.892;2024-03-17T00:58:35;101291.00;;;10.70
20103;BMP180;10210;52.284;9.892;2024-03-17T01:01:04;101298.00;;;10.70
20103;BMP180;10210;52.284;9.892;2024-03-17T01:03:29;101291.00;;;10.70
20103;BMP180;10210;52.284;9.892;2024-03-17T01:05:55;101298.00;;;10.70
20103;BMP180;10210;52.284;9.892;2024-03-17T01:08:21;101298.00;;;10.70
20103;BMP180;10210;52.284;9.892;2024-03-17T01:10:48;101297.00;;;10.70
20103;BMP180;10210;52.284;9.892;2024-03-17T01:13:18;101284.00;;;10.70
20103;BMP180;10210;52.284;9.892;2024-03-17T01:15:44;101285.00;;;10.70
20103;BMP180;10210;52.284;9.892;2024-03-17T01:18:10;101286.00;;;10.70
20103;BMP180;10210;52.284;9.892;2024-03-17T01:20:38;101289.00;;;10.70
20103;BMP180;10210;52.284;9.892;2024-03-17T01:23:04;101289.00;;;10.70
20103;BMP180;10210;52.284;9.892;2024-03-17T01:25:30;101293.00;;;10.70
20103;BMP180;10210;52.284;9.892;2024-03-17T01:27:57;101289.00;;;10.70
20103;BMP180;10210;52.284;9.892;2024-03-17T01:30:23;101283.00;;;10.70
20103;BMP180;10210;52.284;9.892;2024-03-17T01:32:51;101278.00;;;10.70
20103;BMP180;10210;52.284;9.892;2024-03-17T01:35:17;101280.00;;;10.60
20103;BMP180;10210;52.284;9.892;2024-03-17T01:37:43;101287.00;;;10.60
20103;BMP180;10210;52.284;9.892;2024-03-17T01:40:15;101287.00;;;10.60
20103;BMP180;10210;52.284;9.892;2024-03-17T01:42:43;101285.00;;;10.60
20103;BMP180;10210;52.284;9.892;2024-03-17T01:45:32;101281.00;;;10.60
20103;BMP180;10210;52.284;9.892;2024-03-17T01:48:02;101283.00;;;10.60
20103;BMP180;10210;52.284;9.892;2024-03-17T01:50:35;101281.00;;;10.50
20103;BMP180;10210;52.284;9.892;2024-03-17T01:53:04;101276.00;;;10.50
20103;BMP180;10210;52.284;9.892;2024-03-17T01:55:40;101277.00;;;10.40
20103;BMP180;10210;52.284;9.892;2024-03-17T01:58:07;101269.00;;;10.40
20103;BMP180;10210;52.284;9.892;2024-03-17T02:00:41;101274.00;;;10.40
20103;BMP180;10210;52.284;9.892;2024-03-17T02:03:09;101265.00;;;10.30
20103;BMP180;10210;52.284;9.892;2024-03-17T02:05:36;101259.00;;;10.30
20103;BMP180;10210;52.284;9.892;2024-03-17T02:08:07;101259.00;;;10.30
20103;BMP180;10210;52.284;9.892;2024-03-17T02:10:38;101257.00;;;10.30
20103;BMP180;10210;52.284;9.892;2024-03-17T02:13:04;101271.00;;;10.30
20103;BMP180;10210;52.284;9.892;2024-03-17T02:15:32;101277.00;;;10.20
20103;BMP180;10210;52.284;9.892;2024-03-17T02:17:58;101266.00;;;10.20
20103;BMP180;10210;52.284;9.892;2024-03-17T02:20:24;101262.00;;;10.20
20103;BMP180;10210;52.284;9.892;2024-03-17T02:23:11;101275.00;;;10.20
20103;BMP180;10210;52.284;9.892;2024-03-17T02:25:39;101275.00;;;10.20
20103;BMP180;10210;52.284;9.892;2024-03-17T02:28:07;101265.00;;;10.20
20103;BMP180;10210;52.284;9.892;2024-03-17T02:30:33;101270.00;;;10.10
20103;BMP180;10210;52.284;9.892;2024-03-17T02:32:59;101266.00;;;10.10
20103;BMP180;10210;52.284;9.892;2024-03-17T02:35:25;101267.00;;;10.00
20103;BMP180;10210;52.284;9.892;2024-03-17T02:37:51;101270.00;;;10.00
20103;BMP180;10210;52.284;9.892;2024-03-17T02:40:17;101269.00;;;9.90
20103;BMP180;10210;52.284;9.892;2024-03-17T02:42:44;101266.00;;;9.90
20103;BMP180;10210;52.284;9.892;2024-03-17T02:45:14;101263.00;;;9.80
20103;BMP180;10210;52.284;9.892;2024-03-17T02:47:41;101265.00;;;9.70
20103;BMP180;10210;52.284;9.892;2024-03-17T02:50:08;101263.00;;;9.70
20103;BMP180;10210;52.284;9.892;2024-03-17T02:52:38;101258.00;;;9.60
20103;BMP180;10210;52.284;9.892;2024-03-17T02:55:04;101262.00;;;9.50
20103;BMP180;10210;52.284;9.892;2024-03-17T02:57:31;101278.00;;;9.40
20103;BMP180;10210;52.284;9.892;2024-03-17T03:00:00;101265.00;;;9.40
20103;BMP180;10210;52.284;9.892;2024-03-17T03:02:29;101257.00;;;9.40
20103;BMP180;10210;52.284;9.892;2024-03-17T03:04:55;101263.00;;;9.30
20103;BMP180;10210;52.284;9.892;2024-03-17T03:07:20;101269.00;;;9.30
20103;BMP180;10210;52.284;9.892;2024-03-17T03:09:46;101272.00;;;9.20
20103;BMP180;10210;52.284;9.892;2024-03-17T03:12:14;101265.00;;;9.20
20103;BMP180;10210;52.284;9.892;2024-03-17T03:14:39;101271.00;;;9.20
20103;BMP180;10210;52.284;9.892;2024-03-17T03:17:05;101264.00;;;9.30
20103;BMP180;10210;52.284;9.892;2024-03-17T03:19:31;101269.00;;;9.30
20103;BMP180;10210;52.284;9.892;2024-03-17T03:21:56;101266.00;;;9.30
20103;BMP180;10210;52.284;9.892;2024-03-17T03:24:22;101267.00;;;9.40
20103;BMP180;10210;52.284;9.892;2024-03-17T03:26:48;101265.00;;;9.40
20103;BMP180;10210;52.284;9.892;2024-03-17T03:29:14;101251.00;;;9.40
20103;BMP180;10210;52.284;9.892;2024-03-17T03:31:40;101262.00;;;9.50
20103;BMP180;10210;52.284;9.892;2024-03-17T03:34:07;101256.00;;;9.50
20103;BMP180;10210;52.284;9.892;2024-03-17T03:36:35;101260.00;;;9.50
20103;BMP180;10210;52.284;9.892;2024-03-17T03:39:04;101260.00;;;9.50
20103;BMP180;10210;52.284;9.892;2024-03-17T03:41:31;101264.00;;;9.50
20103;BMP180;10210;52.284;9.892;2024-03-17T03:43:58;101264.00;;;9.50
20103;BMP180;10210;52.284;9.892;2024-03-17T03:46:23;101266.00;;;9.50
20103;BMP180;10210;52.284;9.892;2024-03-17T03:48:49;101276.00;;;9.50
20103;BMP180;10210;52.284;9.892;2024-03-17T03:51:15;101271.00;;;9.40
20103;BMP180;10210;52.284;9.892;2024-03-17T03:53:40;101266.00;;;9.40
20103;BMP180;10210;52.284;9.892;2024-03-17T03:56:09;101262.00;;;9.30
20103;BMP180;10210;52.284;9.892;2024-03-17T03:58:39;101271.00;;;9.20
20103;BMP180;10210;52.284;9.892;2024-03-17T04:01:13;101270.00;;;9.20
20103;BMP180;10210;52.284;9.892;2024-03-17T04:03:48;101279.00;;;9.10
20103;BMP180;10210;52.284;9.892;2024-03-17T04:06:17;101273.00;;;9.00
20103;BMP180;10210;52.284;9.892;2024-03-17T04:08:43;101274.00;;;8.90
20103;BMP180;10210;52.284;9.892;2024-03-17T04:11:09;101277.00;;;8.80
20103;BMP180;10210;52.284;9.892;2024-03-17T04:13:38;101277.00;;;8.80
20103;BMP180;10210;52.284;9.892;2024-03-17T04:16:05;101286.00;;;8.70
20103;BMP180;10210;52.284;9.892;2024-03-17T04:18:32;101278.00;;;8.70
20103;BMP180;10210;52.284;9.892;2024-03-17T04:21:05;101264.00;;;8.70
20103;BMP180;10210;52.284;9.892;2024-03-17T04:23:34;101271.00;;;8.70
20103;BMP180;10210;52.284;9.892;2024-03-17T04:26:01;101274.00;;;8.70
20103;BMP180;10210;52.284;9.892;2024-03-17T04:28:28;101266.00;;;8.70
20103;BMP180;10210;52.284;9.892;2024-03-17T04:31:05;101271.00;;;8.60
20103;BMP180;10210;52.284;9.892;2024-03-17T04:33:33;101270.00;;;8.70
20103;BMP180;10210;52.284;9.892;2024-03-17T04:35:59;101280.00;;;8.80
20103;BMP180;10210;52.284;9.892;2024-03-17T04:38:25;101269.00;;;8.80
20103;BMP180;10210;52.284;9.892;2024-03-17T04:40:53;101266.00;;;8.90
20103;BMP180;10210;52.284;9.892;2024-03-17T04:43:32;101265.00;;;9.00
20103;BMP180;10210;52.284;9.892;2024-03-17T04:46:05;101272.00;;;9.10
20103;BMP180;10210;52.284;9.892;2024-03-17T04:48:32;101276.00;;;9.10
20103;BMP180;10210;52.284;9.892;2024-03-17T04:50:59;101283.00;;;9.20
20103;BMP180;10210;52.284;9.892;2024-03-17T04:53:26;101275.00;;;9.20
20103;BMP180;10210;52.284;9.892;2024-03-17T04:56:01;101275.00;;;9.20
20103;BMP180;10210;52.284;9.892;2024-03-17T04:58:27;101279.00;;;9.20
20103;BMP180;10210;52.284;9.892;2024-03-17T05:00:52;101276.00;;;9.20
20103;BMP180;10210;52.284;9.892;2024-03-17T05:03:20;101276.00;;;9.30
20103;BMP180;10210;52.284;9.892;2024-03-17T05:05:45;101283.00;;;9.30
20103;BMP180;10210;52.284;9.892;2024-03-17T05:08:12;101290.00;;;9.30
20103;BMP180;10210;52.284;9.892;2024-03-17T05:10:39;101289.00;;;9.40
20103;BMP180;10210;52.284;9.892;2024-03-17T05:13:05;101288.00;;;9.40
20103;BMP180;10210;52.284;9.892;2024-03-17T05:15:30;101298.00;;;9.40
20103;BMP180;10210;52.284;9.892;2024-03-17T05:17:56;101305.00;;;9.40
20103;BMP180;10210;52.284;9.892;2024-03-17T05:20:22;101306.00;;;9.40
20103;BMP180;10210;52.284;9.892;2024-03-17T05:22:49;101309.00;;;9.40
20103;BMP180;10210;52.284;9.892;2024-03-17T05:25:15;101308.00;;;9.40
20103;BMP180;10210;52.284;9.892;2024-03-17T05:27:40;101300.00;;;9.40
20103;BMP180;10210;52.284;9.892;2024-03-17T05:30:07;101306.00;;;9.40
20103;BMP180;10210;52.284;9.892;2024-03-17T05:32:34;101301.00;;;9.40
20103;BMP180;10210;52.284;9.892;2024-03-17T05:35:00;101302.00;;;9.40
20103;BMP180;10210;52.284;9.892;2024-03-17T05:37:25;101306.00;;;9.40
20103;BMP180;10210;52.284;9.892;2024-03-17T05:39:53;101306.00;;;9.40
20103;BMP180;10210;52.284;9.892;2024-03-17T05:42:22;101319.00;;;9.40
20103;BMP180;10210;52.284;9.892;2024-03-17T05:44:48;101314.00;;;9.40
20103;BMP180;10210;52.284;9.892;2024-03-17T05:47:20;101318.00;;;9.40
20103;BMP180;10210;52.284;9.892;2024-03-17T05:49:45;101320.00;;;9.30
20103;BMP180;10210;52.284;9.892;2024-03-17T05:52:12;101316.00;;;9.30
20103;BMP180;10210;52.284;9.892;2024-03-17T05:54:38;101312.00;;;9.30
20103;BMP180;10210;52.284;9.892;2024-03-17T05:57:04;101324.00;;;9.30
20103;BMP180;10210;52.284;9.892;2024-03-17T05:59:30;101321.00;;;9.20
20103;BMP180;10210;52.284;9.892;2024-03-17T06:01:59;101324.00;;;9.20
20103;BMP180;10210;52.284;9.892;2024-03-17T06:04:24;101328.00;;;9.20
20103;BMP180;10210;52.284;9.892;2024-03-17T06:06:50;101330.00;;;9.10
20103;BMP180;10210;52.284;9.892;2024-03-17T06:09:17;101325.00;;;9.10
20103;BMP180;10210;52.284;9.892;2024-03-17T06:11:46;101329.00;;;9.00
20103;BMP180;10210;52.284;9.892;2024-03-17T06:14:11;101329.00;;;9.00
20103;BMP180;10210;52.284;9.892;2024-03-17T06:16:39;101331.00;;;8.90
20103;BMP180;10210;52.284;9.892;2024-03-17T06:19:04;101327.00;;;8.90
20103;BMP180;10210;52.284;9.892;2024-03-17T06:21:31;101338.00;;;9.00
20103;BMP180;10210;52.284;9.892;2024-03-17T06:23:57;101332.00;;;9.00
20103;BMP180;10210;52.284;9.892;2024-03-17T06:26:23;101328.00;;;9.00
20103;BMP180;10210;52.284;9.892;2024-03-17T06:28:49;101336.00;;;9.00
20103;BMP180;10210;52.284;9.892;2024-03-17T06:31:16;101334.00;;;9.00
20103;BMP180;10210;52.284;9.892;2024-03-17T06:33:41;101331.00;;;9.10
20103;BMP180;10210;52.284;9.892;2024-03-17T06:36:08;101338.00;;;9.10
20103;BMP180;10210;52.284;9.892;2024-03-17T06:38:34;101331.00;;;9.10
20103;BMP180;10210;52.284;9.892;2024-03-17T06:40:59;101325.00;;;9.20
20103;BMP180;10210;52.284;9.892;2024-03-17T06:43:25;101327.00;;;9.20
20103;BMP180;10210;52.284;9.892;2024-03-17T06:45:58;101319.00;;;9.20
20103;BMP180;10210;52.284;9.892;2024-03-17T06:48:27;101328.00;;;9.30
20103;BMP180;10210;52.284;9.892;2024-03-17T06:50:54;101339.00;;;9.30
20103;BMP180;10210;52.284;9.892;2024-03-17T06:53:24;101330.00;;;9.40
20103;BMP180;10210;52.284;9.892;2024-03-17T06:55:56;101332.00;;;9.50
20103;BMP180;10210;52.284;9.892;2024-03-17T06:58:25;101334.00;;;9.50
20103;BMP180;10210;52.284;9.892;2024-03-17T07:01:00;101322.00;;;9.60
20103;BMP180;10210;52.284;9.892;2024-03-17T07:03:29;101322.00;;;9.60
20103;BMP180;10210;52.284;9.892;2024-03-17T07:05:57;101330.00;;;9.70
20103;BMP180;10210;52.284;9.892;2024-03-17T07:08:24;101321.00;;;9.70
20103;BMP180;10210;52.284;9.892;2024-03-17T07:11:00;101314.00;;;9.80
20103;BMP180;10210;52.284;9.892;2024-03-17T07:13:36;101318.00;;;9.80
20103;BMP180;10210;52.284;9.892;2024-03-17T07:16:05;101306.00;;;9.80
20103;BMP180;10210;52.284;9.892;2024-03-17T07:18:33;101306.00;;;9.90
20103;BMP180;10210;52.284;9.892;2024-03-17T07:21:04;101306.00;;;9.90
20103;BMP180;10210;52.284;9.892;2024-03-17T07:23:31;101306.00;;;9.90
20103;BMP180;10210;52.284;9.892;2024-03-17T07:25:59;101317.00;;;10.00
20103;BMP180;10210;52.284;9.892;2024-03-17T07:28:25;101316.00;;;10.10
20103;BMP180;10210;52.284;9.892;2024-03-17T07:30:54;101314.00;;;10.10
20103;BMP180;10210;52.284;9.892;2024-03-17T07:33:20;101316.00;;;10.20
20103;BMP180;10210;52.284;9.892;2024-03-17T07:35:54;101319.00;;;10.20
20103;BMP180;10210;52.284;9.892;2024-03-17T07:38:24;101314.00;;;10.20
20103;BMP180;10210;52.284;9.892;2024-03-17T07:41:00;101318.00;;;10.30
20103;BMP180;10210;52.284;9.892;2024-03-17T07:43:28;101330.00;;;10.30
20103;BMP180;10210;52.284;9.892;2024-03-17T07:46:08;101326.00;;;10.40
20103;BMP180;10210;52.284;9.892;2024-03-17T07:48:36;101331.00;;;10.50
20103;BMP180;10210;52.284;9.892;2024-03-17T07:51:06;101324.00;;;10.60
20103;BMP180;10210;52.284;9.892;2024-03-17T07:53:39;101326.00;;;10.70
20103;BMP180;10210;52.284;9.892;2024-03-17T07:56:10;101327.00;;;10.90
20103;BMP180;10210;52.284;9.892;2024-03-17T07:58:43;101317.00;;;11.30
20103;BMP180;10210;52.284;9.892;2024-03-17T08:01:13;101317.00;;;11.70
20103;BMP180;10210;52.284;9.892;2024-03-17T08:03:41;101320.00;;;12.20
20103;BMP180;10210;52.284;9.892;2024-03-17T08:06:09;101324.00;;;12.70
20103;BMP180;10210;52.284;9.892;2024-03-17T08:08:38;101327.00;;;13.30
20103;BMP180;10210;52.284;9.892;2024-03-17T08:11:04;101336.00;;;13.80
20103;BMP180;10210;52.284;9.892;2024-03-17T08:13:31;101337.00;;;14.40
20103;BMP180;10210;52.284;9.892;2024-03-17T08:16:05;101336.00;;;15.10
20103;BMP180;10210;52.284;9.892;2024-03-17T08:18:34;101338.00;;;15.70
20103;BMP180;10210;52.284;9.892;2024-03-17T08:21:02;101341.00;;;16.10
20103;BMP180;10210;52.284;9.892;2024-03-17T08:23:33;101339.00;;;16.40
20103;BMP180;10210;52.284;9.892;2024-03-17T08:26:02;101344.00;;;16.60
20103;BMP180;10210;52.284;9.892;2024-03-17T08:28:28;101331.00;;;16.80
20103;BMP180;10210;52.284;9.892;2024-03-17T08:31:02;101333.00;;;17.00
20103;BMP180;10210;52.284;9.892;2024-03-17T08:33:30;101329.00;;;17.20
20103;BMP180;10210;52.284;9.892;2024-03-17T08:35:59;101329.00;;;17.40
20103;BMP180;10210;52.284;9.892;2024-03-17T08:38:27;101327.00;;;17.60
20103;BMP180;10210;52.284;9.892;2024-03-17T08:41:03;101318.00;;;17.70
20103;BMP180;10210;52.284;9.892;2024-03-17T08:43:30;101323.00;;;17.70
20103;BMP180;10210;52.284;9.892;2024-03-17T08:45:56;101327.00;;;17.70
20103;BMP180;10210;52.284;9.892;2024-03-17T08:48:25;101322.00;;;17.70
20103;BMP180;10210;52.284;9.892;2024-03-17T08:50:52;101323.00;;;17.60
20103;BMP180;10210;52.284;9.892;2024-03-17T08:53:20;101326.00;;;17.50
20103;BMP180;10210;52.284;9.892;2024-03-17T08:55:47;101320.00;;;17.50
20103;BMP180;10210;52.284;9.892;2024-03-17T08:58:15;101320.00;;;17.40
20103;BMP180;10210;52.284;9.892;2024-03-17T09:00:41;101321.00;;;17.40
20103;BMP180;10210;52.284;9.892;2024-03-17T09:03:09;101320.00;;;17.20
20103;BMP180;10210;52.284;9.892;2024-03-17T09:05:36;101327.00;;;17.10
20103;BMP180;10210;52.284;9.892;2024-03-17T09:08:04;101317.00;;;17.00
20103;BMP180;10210;52.284;9.892;2024-03-17T09:10:30;101316.00;;;17.10
20103;BMP180;10210;52.284;9.892;2024-03-17T09:12:56;101319.00;;;17.10
20103;BMP180;10210;52.284;9.892;2024-03-17T09:15:22;101322.00;;;17.20
20103;BMP180;10210;52.284;9.892;2024-03-17T09:17:47;101319.00;;;17.20
20103;BMP180;10210;52.284;9.892;2024-03-17T09:20:13;101327.00;;;17.20
20103;BMP180;10210;52.284;9.892;2024-03-17T09:22:41;101325.00;;;17.20
20103;BMP180;10210;52.284;9.892;2024-03-17T09:25:08;101322.00;;;17.20
20103;BMP180;10210;52.284;9.892;2024-03-17T09:27:34;101304.00;;;17.10
20103;BMP180;10210;52.284;9.892;2024-03-17T09:30:05;101318.00;;;17.00
20103;BMP180;10210;52.284;9.892;2024-03-17T09:32:40;101321.00;;;16.90
20103;BMP180;10210;52.284;9.892;2024-03-17T09:35:07;101322.00;;;16.80
20103;BMP180;10210;52.284;9.892;2024-03-17T09:37:33;101326.00;;;16.60
20103;BMP180;10210;52.284;9.892;2024-03-17T09:39:58;101321.00;;;16.40
20103;BMP180;10210;52.284;9.892;2024-03-17T09:42:28;101318.00;;;16.40
20103;BMP180;10210;52.284;9.892;2024-03-17T09:44:54;101318.00;;;16.40
20103;BMP180;10210;52.284;9.892;2024-03-17T09:47:24;101328.00;;;16.50
20103;BMP180;10210;52.284;9.892;2024-03-17T09:49:50;101340.00;;;16.60
20103;BMP180;10210;52.284;9.892;2024-03-17T09:52:25;101328.00;;;16.70
20103;BMP180;10210;52.284;9.892;2024-03-17T09:54:59;101342.00;;;16.90
20103;BMP180;10210;52.284;9.892;2024-03-17T09:57:26;101327.00;;;16.90
20103;BMP180;10210;52.284;9.892;2024-03-17T09:59:55;101328.00;;;17.00
20103;BMP180;10210;52.284;9.892;2024-03-17T10:02:21;101330.00;;;17.10
20103;BMP180;10210;52.284;9.892;2024-03-17T10:04:48;101323.00;;;17.10
20103;BMP180;10210;52.284;9.892;2024-03-17T10:07:14;101320.00;;;17.10
20103;BMP180;10210;52.284;9.892;2024-03-17T10:09:41;101321.00;;;17.10
20103;BMP180;10210;52.284;9.892;2024-03-17T10:12:29;101314.00;;;17.10
20103;BMP180;10210;52.284;9.892;2024-03-17T10:15:01;101320.00;;;17.10
20103;BMP180;10210;52.284;9.892;2024-03-17T10:17:34;101315.00;;;17.20
20103;BMP180;10210;52.284;9.892;2024-03-17T10:20:21;101322.00;;;17.30
20103;BMP180;10210;52.284;9.892;2024-03-17T10:23:06;101332.00;;;17.30
20103;BMP180;10210;52.284;9.892;2024-03-17T10:25:38;101327.00;;;17.40
20103;BMP180;10210;52.284;9.892;2024-03-17T10:28:12;101329.00;;;17.30
20103;BMP180;10210;52.284;9.892;2024-03-17T10:30:40;101325.00;;;17.30
20103;BMP180;10210;52.284;9.892;2024-03-17T10:33:07;101326.00;;;17.30
20103;BMP180;10210;52.284;9.892;2024-03-17T10:35:38;101322.00;;;17.30
20103;BMP180;10210;52.284;9.892;2024-03-17T10:38:06;101325.00;;;17.20
20103;BMP180;10210;52.284;9.892;2024-03-17T10:40:33;101324.00;;;17.10
20103;BMP180;10210;52.284;9.892;2024-03-17T10:43:02;101336.00;;;17.00
20103;BMP180;10210;52.284;9.892;2024-03-17T10:45:28;101340.00;;;16.80
20103;BMP180;10210;52.284;9.892;2024-03-17T10:48:02;101339.00;;;16.70
20103;BMP180;10210;52.284;9.892;2024-03-17T10:50:31;101331.00;;;16.70
20103;BMP180;10210;52.284;9.892;2024-03-17T10:53:04;101331.00;;;16.70
20103;BMP180;10210;52.284;9.892;2024-03-17T10:55:44;101325.00;;;16.70
20103;BMP180;10210;52.284;9.892;2024-03-17T10:58:34;101324.00;;;16.60
20103;BMP180;10210;52.284;9.892;2024-03-17T11:01:04;101327.00;;;16.60
20103;BMP180;10210;52.284;9.892;2024-03-17T11:03:32;101320.00;;;16.60
20103;BMP180;10210;52.284;9.892;2024-03-17T11:06:02;101318.00;;;16.50
20103;BMP180;10210;52.284;9.892;2024-03-17T11:08:31;101316.00;;;16.50
20103;BMP180;10210;52.284;9.892;2024-03-17T11:10:58;101314.00;;;16.40
20103;BMP180;10210;52.284;9.892;2024-03-17T11:13:32;101306.00;;;16.40
20103;BMP180;10210;52.284;9.892;2024-03-17T11:15:58;101302.00;;;16.40
20103;BMP180;10210;52.284;9.892;2024-03-17T11:18:29;101296.00;;;16.30
20103;BMP180;10210;52.284;9.892;2024-03-17T11:23:33;101309.00;;;16.30
20103;BMP180;10210;52.284;9.892;2024-03-17T11:25:59;101302.00;;;16.20
20103;BMP180;10210;52.284;9.892;2024-03-17T11:31:39;101309.00;;;16.30
20103;BMP180;10210;52.284;9.892;2024-03-17T11:34:30;101296.00;;;16.30
20103;BMP180;10210;52.284;9.892;2024-03-17T11:36:58;101295.00;;;16.50
20103;BMP180;10210;52.284;9.892;2024-03-17T11:39:54;101289.00;;;16.50
20103;BMP180;10210;52.284;9.892;2024-03-17T11:42:26;101283.00;;;16.60
20103;BMP180;10210;52.284;9.892;2024-03-17T11:44:58;101275.00;;;16.70
20103;BMP180;10210;52.284;9.892;2024-03-17T11:47:34;101271.00;;;16.70
20103;BMP180;10210;52.284;9.892;2024-03-17T11:50:04;101278.00;;;16.80
20103;BMP180;10210;52.284;9.892;2024-03-17T11:52:30;101274.00;;;16.80
20103;BMP180;10210;52.284;9.892;2024-03-17T11:54:56;101265.00;;;16.80
20103;BMP180;10210;52.284;9.892;2024-03-17T11:57:25;101267.00;;;16.80
20103;BMP180;10210;52.284;9.892;2024-03-17T11:59:52;101263.00;;;16.80
20103;BMP180;10210;52.284;9.892;2024-03-17T12:04:46;101255.00;;;16.80
20103;BMP180;10210;52.284;9.892;2024-03-17T12:07:16;101260.00;;;16.80
20103;BMP180;10210;52.284;9.892;2024-03-17T12:09:43;101254.00;;;16.80
20103;BMP180;10210;52.284;9.892;2024-03-17T12:12:30;101259.00;;;16.90
20103;BMP180;10210;52.284;9.892;2024-03-17T12:15:03;101266.00;;;16.90
20103;BMP180;10210;52.284;9.892;2024-03-17T12:17:29;101257.00;;;16.90
20103;BMP180;10210;52.284;9.892;2024-03-17T12:19:55;101256.00;;;17.00
20103;BMP180;10210;52.284;9.892;2024-03-17T12:22:24;101253.00;;;17.00
20103;BMP180;10210;52.284;9.892;2024-03-17T12:24:58;101257.00;;;17.10
20103;BMP180;10210;52.284;9.892;2024-03-17T12:27:26;101255.00;;;17.20
20103;BMP180;10210;52.284;9.892;2024-03-17T12:29:53;101247.00;;;17.20
20103;BMP180;10210;52.284;9.892;2024-03-17T12:32:25;101240.00;;;17.20
20103;BMP180;10210;52.284;9.892;2024-03-17T12:34:56;101233.00;;;17.20
20103;BMP180;10210;52.284;9.892;2024-03-17T12:37:27;101226.00;;;17.20
20103;BMP180;10210;52.284;9.892;2024-03-17T12:40:00;101230.00;;;17.30
20103;BMP180;10210;52.284;9.892;2024-03-17T12:42:29;101224.00;;;17.30
20103;BMP180;10210;52.284;9.892;2024-03-17T12:45:00;101228.00;;;17.40
20103;BMP180;10210;52.284;9.892;2024-03-17T12:47:29;101216.00;;;17.50
20103;BMP180;10210;52.284;9.892;2024-03-17T12:49:59;101227.00;;;17.50
20103;BMP180;10210;52.284;9.892;2024-03-17T12:52:28;101217.00;;;17.60
20103;BMP180;10210;52.284;9.892;2024-03-17T12:54:57;101219.00;;;17.60
20103;BMP180;10210;52.284;9.892;2024-03-17T12:57:44;101208.00;;;17.70
20103;BMP180;10210;52.284;9.892;2024-03-17T13:00:28;101211.00;;;17.70
20103;BMP180;10210;52.284;9.892;2024-03-17T13:02:58;101210.00;;;17.80
20103;BMP180;10210;52.284;9.892;2024-03-17T13:05:24;101207.00;;;17.90
20103;BMP180;10210;52.284;9.892;2024-03-17T13:07:50;101206.00;;;18.00
20103;BMP180;10210;52.284;9.892;2024-03-17T13:10:19;101209.00;;;18.00
20103;BMP180;10210;52.284;9.892;2024-03-17T13:12:46;101206.00;;;18.00
20103;BMP180;10210;52.284;9.892;2024-03-17T13:15:16;101218.00;;;18.10
20103;BMP180;10210;52.284;9.892;2024-03-17T13:17:43;101215.00;;;18.10
20103;BMP180;10210;52.284;9.892;2024-03-17T13:20:15;101210.00;;;18.20
20103;BMP180;10210;52.284;9.892;2024-03-17T13:22:45;101216.00;;;18.20
20103;BMP180;10210;52.284;9.892;2024-03-17T13:25:20;101203.00;;;18.20
20103;BMP180;10210;52.284;9.892;2024-03-17T13:27:48;101218.00;;;18.20
20103;BMP180;10210;52.284;9.892;2024-03-17T13:30:16;101220.00;;;18.20
20103;BMP180;10210;52.284;9.892;2024-03-17T13:32:42;101220.00;;;18.20
20103;BMP180;10210;52.284;9.892;2024-03-17T13:37:44;101209.00;;;18.20
20103;BMP180;10210;52.284;9.892;2024-03-17T13:40:12;101208.00;;;18.30
20103;BMP180;10210;52.284;9.892;2024-03-17T13:42:40;101199.00;;;18.40
20103;BMP180;10210;52.284;9.892;2024-03-17T13:45:11;101208.00;;;18.50
20103;BMP180;10210;52.284;9.892;2024-03-17T13:47:45;101200.00;;;18.50
20103;BMP180;10210;52.284;9.892;2024-03-17T13:50:11;101189.00;;;18.60
20103;BMP180;10210;52.284;9.892;2024-03-17T13:52:40;101193.00;;;18.60
20103;BMP180;10210;52.284;9.892;2024-03-17T13:55:13;101197.00;;;18.70
20103;BMP180;10210;52.284;9.892;2024-03-17T13:57:40;101187.00;;;18.70
20103;BMP180;10210;52.284;9.892;2024-03-17T14:00:06;101198.00;;;18.80
20103;BMP180;10210;52.284;9.892;2024-03-17T14:02:33;101191.00;;;18.80
20103;BMP180;10210;52.284;9.892;2024-03-17T14:04:59;101182.00;;;18.80
20103;BMP180;10210;52.284;9.892;2024-03-17T14:07:25;101189.00;;;18.80
20103;BMP180;10210;52.284;9.892;2024-03-17T14:09:51;101186.00;;;18.80
20103;BMP180;10210;52.284;9.892;2024-03-17T14:12:17;101177.00;;;18.70
20103;BMP180;10210;52.284;9.892;2024-03-17T14:14:43;101190.00;;;18.70
20103;BMP180;10210;52.284;9.892;2024-03-17T14:17:09;101186.00;;;18.70
20103;BMP180;10210;52.284;9.892;2024-03-17T14:19:35;101190.00;;;18.70
20103;BMP180;10210;52.284;9.892;2024-03-17T14:22:01;101181.00;;;18.70